sensor_id;sensor_type;location;lat;lon;timestamp;pressure;altitude;pressure_sealevel;temperature;humidity
77086;BME280;66014;53.134;18.006;2024-02-15T00:00:54;101400.04;;;6.16;95.23
77086;BME280;66014;53.134;18.006;2024-02-15T00:03:37;101405.75;;;6.17;95.33
77086;BME280;66014;53.134;18.006;2024-02-15T00:06:04;101407.53;;;6.17;95.60
77086;BME280;66014;53.134;18.006;2024-02-15T00:08:30;101409.95;;;6.17;95.47
77086;BME280;66014;53.134;18.006;2024-02-15T00:10:57;101407.41;;;6.18;95.48
77086;BME280;66014;53.134;18.006;2024-02-15T00:13:24;101404.90;;;6.19;95.82
77086;BME280;66014;53.134;18.006;2024-02-15T00:15:51;101403.60;;;6.19;95.89
77086;BME280;66014;53.134;18.006;2024-02-15T00:18:18;101396.64;;;6.20;95.89
77086;BME280;66014;53.134;18.006;2024-02-15T00:20:45;101398.68;;;6.21;96.02
77086;BME280;66014;53.134;18.006;2024-02-15T00:23:12;101397.42;;;6.21;95.99
77086;BME280;66014;53.134;18.006;2024-02-15T00:25:38;101391.16;;;6.20;96.01
77086;BME280;66014;53.134;18.006;2024-02-15T00:28:06;101392.56;;;6.21;96.04
77086;BME280;66014;53.134;18.006;2024-02-15T00:30:33;101390.36;;;6.22;96.12
77086;BME280;66014;53.134;18.006;2024-02-15T00:33:00;101391.34;;;6.23;96.10
77086;BME280;66014;53.134;18.006;2024-02-15T00:35:29;101393.14;;;6.24;95.93
77086;BME280;66014;53.134;18.006;2024-02-15T00:37:55;101390.66;;;6.24;96.24
77086;BME280;66014;53.134;18.006;2024-02-15T00:40:23;101389.93;;;6.24;96.28
77086;BME280;66014;53.134;18.006;2024-02-15T00:42:50;101391.79;;;6.25;96.25
77086;BME280;66014;53.134;18.006;2024-02-15T00:45:16;101393.83;;;6.26;96.41
77086;BME280;66014;53.134;18.006;2024-02-15T00:47:43;101392.53;;;6.27;96.52
77086;BME280;66014;53.134;18.006;2024-02-15T00:50:10;101395.75;;;6.29;96.48
77086;BME280;66014;53.134;18.006;2024-02-15T00:52:36;101394.30;;;6.29;96.53
77086;BME280;66014;53.134;18.006;2024-02-15T00:55:03;101396.61;;;6.29;96.69
77086;BME280;66014;53.134;18.006;2024-02-15T00:57:30;101393.16;;;6.30;96.61
77086;BME280;66014;53.134;18.006;2024-02-15T00:59:56;101390.47;;;6.30;96.77
77086;BME280;66014;53.134;18.006;2024-02-15T01:02:23;101392.26;;;6.32;96.78
77086;BME280;66014;53.134;18.006;2024-02-15T01:04:51;101395.80;;;6.34;97.11
77086;BME280;66014;53.134;18.006;2024-02-15T01:07:19;101389.50;;;6.36;97.05
77086;BME280;66014;53.134;18.006;2024-02-15T01:09:46;101390.86;;;6.38;97.03
77086;BME280;66014;53.134;18.006;2024-02-15T01:12:12;101390.34;;;6.40;96.92
77086;BME280;66014;53.134;18.006;2024-02-15T01:14:39;101384.06;;;6.41;96.97
77086;BME280;66014;53.134;18.006;2024-02-15T01:17:06;101387.73;;;6.43;97.09
77086;BME280;66014;53.134;18.006;2024-02-15T01:19:32;101386.17;;;6.45;97.02
77086;BME280;66014;53.134;18.006;2024-02-15T01:21:59;101385.08;;;6.47;97.07
77086;BME280;66014;53.134;18.006;2024-02-15T01:24:26;101385.17;;;6.50;97.23
77086;BME280;66014;53.134;18.006;2024-02-15T01:26:52;101387.30;;;6.52;97.26
77086;BME280;66014;53.134;18.006;2024-02-15T01:29:21;101385.18;;;6.55;97.20
77086;BME280;66014;53.134;18.006;2024-02-15T01:31:47;101384.12;;;6.57;97.34
77086;BME280;66014;53.134;18.006;2024-02-15T01:34:15;101385.66;;;6.57;97.24
77086;BME280;66014;53.134;18.006;2024-02-15T01:36:41;101385.25;;;6.58;97.28
77086;BME280;66014;53.134;18.006;2024-02-15T01:39:08;101379.14;;;6.59;97.33
77086;BME280;66014;53.134;18.006;2024-02-15T01:41:38;101375.41;;;6.59;97.29
77086;BME280;66014;53.134;18.006;2024-02-15T01:44:04;101376.39;;;6.60;97.42
77086;BME280;66014;53.134;18.006;2024-02-15T01:46:32;101372.13;;;6.60;97.39
77086;BME280;66014;53.134;18.006;2024-02-15T01:49:01;101370.82;;;6.61;97.36
77086;BME280;66014;53.134;18.006;2024-02-15T01:51:29;101370.27;;;6.61;97.35
77086;BME280;66014;53.134;18.006;2024-02-15T01:53:56;101373.40;;;6.62;97.60
77086;BME280;66014;53.134;18.006;2024-02-15T01:56:24;101366.66;;;6.62;97.76
77086;BME280;66014;53.134;18.006;2024-02-15T01:58:52;101370.52;;;6.63;97.82
77086;BME280;66014;53.134;18.006;2024-02-15T02:01:19;101366.27;;;6.63;98.05
77086;BME280;66014;53.134;18.006;2024-02-15T02:03:47;101365.66;;;6.64;98.00
77086;BME280;66014;53.134;18.006;2024-02-15T02:06:14;101365.05;;;6.64;98.36
77086;BME280;66014;53.134;18.006;2024-02-15T02:08:41;101366.16;;;6.66;98.31
77086;BME280;66014;53.134;18.006;2024-02-15T02:11:07;101366.33;;;6.66;98.23
77086;BME280;66014;53.134;18.006;2024-02-15T02:13:36;101363.71;;;6.68;98.22
77086;BME280;66014;53.134;18.006;2024-02-15T02:16:03;101365.17;;;6.69;98.23
77086;BME280;66014;53.134;18.006;2024-02-15T02:18:30;101362.55;;;6.71;98.26
77086;BME280;66014;53.134;18.006;2024-02-15T02:20:57;101364.35;;;6.72;98.30
77086;BME280;66014;53.134;18.006;2024-02-15T02:23:26;101361.66;;;6.75;98.17
77086;BME280;66014;53.134;18.006;2024-02-15T02:25:55;101359.85;;;6.77;98.36
77086;BME280;66014;53.134;18.006;2024-02-15T02:28:21;101361.39;;;6.80;98.19
77086;BME280;66014;53.134;18.006;2024-02-15T02:30:50;101360.30;;;6.82;98.18
77086;BME280;66014;53.134;18.006;2024-02-15T02:33:17;101354.63;;;6.82;98.20
77086;BME280;66014;53.134;18.006;2024-02-15T02:35:48;101350.84;;;6.84;98.27
77086;BME280;66014;53.134;18.006;2024-02-15T02:38:15;101350.12;;;6.84;98.26
77086;BME280;66014;53.134;18.006;2024-02-15T02:40:41;101349.84;;;6.85;98.32
77086;BME280;66014;53.134;18.006;2024-02-15T02:43:08;101351.42;;;6.84;98.43
77086;BME280;66014;53.134;18.006;2024-02-15T02:45:36;101346.63;;;6.85;98.41
77086;BME280;66014;53.134;18.006;2024-02-15T02:48:04;101344.08;;;6.86;98.50
77086;BME280;66014;53.134;18.006;2024-02-15T02:50:30;101345.52;;;6.85;98.79
77086;BME280;66014;53.134;18.006;2024-02-15T02:52:57;101347.95;;;6.86;99.03
77086;BME280;66014;53.134;18.006;2024-02-15T02:55:23;101348.26;;;6.87;99.06
77086;BME280;66014;53.134;18.006;2024-02-15T02:57:50;101347.26;;;6.86;99.04
77086;BME280;66014;53.134;18.006;2024-02-15T03:00:17;101348.05;;;6.87;99.08
77086;BME280;66014;53.134;18.006;2024-02-15T03:02:46;101344.70;;;6.87;99.25
77086;BME280;66014;53.134;18.006;2024-02-15T03:05:14;101345.14;;;6.88;99.25
77086;BME280;66014;53.134;18.006;2024-02-15T03:07:41;101345.26;;;6.88;99.26
77086;BME280;66014;53.134;18.006;2024-02-15T03:10:08;101344.86;;;6.89;99.51
77086;BME280;66014;53.134;18.006;2024-02-15T03:12:37;101345.30;;;6.90;99.52
77086;BME280;66014;53.134;18.006;2024-02-15T03:15:05;101346.29;;;6.91;99.63
77086;BME280;66014;53.134;18.006;2024-02-15T03:17:42;101344.70;;;6.91;99.50
77086;BME280;66014;53.134;18.006;2024-02-15T03:20:10;101343.76;;;6.91;99.63
77086;BME280;66014;53.134;18.006;2024-02-15T03:22:52;101346.86;;;6.92;99.51
77086;BME280;66014;53.134;18.006;2024-02-15T03:25:22;101352.84;;;6.92;99.57
77086;BME280;66014;53.134;18.006;2024-02-15T03:27:53;101350.77;;;6.94;99.84
77086;BME280;66014;53.134;18.006;2024-02-15T03:30:21;101356.04;;;6.94;99.85
77086;BME280;66014;53.134;18.006;2024-02-15T03:32:48;101351.21;;;6.95;99.84
77086;BME280;66014;53.134;18.006;2024-02-15T03:35:18;101352.17;;;6.96;99.78
77086;BME280;66014;53.134;18.006;2024-02-15T03:37:45;101353.30;;;6.97;99.85
77086;BME280;66014;53.134;18.006;2024-02-15T03:40:15;101353.84;;;6.97;99.71
77086;BME280;66014;53.134;18.006;2024-02-15T03:42:42;101354.88;;;6.99;99.79
77086;BME280;66014;53.134;18.006;2024-02-15T03:45:09;101357.72;;;7.01;99.78
77086;BME280;66014;53.134;18.006;2024-02-15T03:47:37;101354.46;;;7.02;99.81
77086;BME280;66014;53.134;18.006;2024-02-15T03:50:05;101351.77;;;7.02;99.85
77086;BME280;66014;53.134;18.006;2024-02-15T03:52:32;101352.07;;;7.03;99.84
77086;BME280;66014;53.134;18.006;2024-02-15T03:55:00;101352.32;;;7.04;99.72
77086;BME280;66014;53.134;18.006;2024-02-15T03:57:29;101347.86;;;7.04;99.89
77086;BME280;66014;53.134;18.006;2024-02-15T03:59:55;101355.72;;;7.05;99.96
77086;BME280;66014;53.134;18.006;2024-02-15T04:02:25;101352.63;;;7.06;99.95
77086;BME280;66014;53.134;18.006;2024-02-15T04:04:56;101348.98;;;7.07;99.94
77086;BME280;66014;53.134;18.006;2024-02-15T04:07:23;101348.61;;;7.09;99.82
77086;BME280;66014;53.134;18.006;2024-02-15T04:09:54;101350.17;;;7.12;99.87
77086;BME280;66014;53.134;18.006;2024-02-15T04:12:21;101352.00;;;7.15;99.66
77086;BME280;66014;53.134;18.006;2024-02-15T04:14:49;101356.46;;;7.16;99.60
77086;BME280;66014;53.134;18.006;2024-02-15T04:17:17;101358.67;;;7.17;99.68
77086;BME280;66014;53.134;18.006;2024-02-15T04:19:48;101358.98;;;7.18;99.70
77086;BME280;66014;53.134;18.006;2024-02-15T04:22:16;101360.20;;;7.18;99.68
77086;BME280;66014;53.134;18.006;2024-02-15T04:24:43;101360.05;;;7.17;99.70
77086;BME280;66014;53.134;18.006;2024-02-15T04:27:11;101360.59;;;7.17;99.77
77086;BME280;66014;53.134;18.006;2024-02-15T04:29:40;101360.30;;;7.17;99.79
77086;BME280;66014;53.134;18.006;2024-02-15T04:32:08;101360.15;;;7.17;99.71
77086;BME280;66014;53.134;18.006;2024-02-15T04:34:38;101366.07;;;7.16;99.91
77086;BME280;66014;53.134;18.006;2024-02-15T04:37:06;101363.00;;;7.14;99.98
77086;BME280;66014;53.134;18.006;2024-02-15T04:39:36;101362.61;;;7.15;99.99
77086;BME280;66014;53.134;18.006;2024-02-15T04:42:03;101364.23;;;7.14;99.96
77086;BME280;66014;53.134;18.006;2024-02-15T04:44:40;101366.66;;;7.15;99.99
77086;BME280;66014;53.134;18.006;2024-02-15T04:47:07;101369.09;;;7.15;100.00
77086;BME280;66014;53.134;18.006;2024-02-15T04:49:33;101368.76;;;7.15;100.00
77086;BME280;66014;53.134;18.006;2024-02-15T04:52:00;101366.19;;;7.16;100.00
77086;BME280;66014;53.134;18.006;2024-02-15T04:54:30;101366.91;;;7.18;100.00
77086;BME280;66014;53.134;18.006;2024-02-15T04:56:57;101362.61;;;7.18;99.99
77086;BME280;66014;53.134;18.006;2024-02-15T04:59:24;101362.19;;;7.19;99.98
77086;BME280;66014;53.134;18.006;2024-02-15T05:01:57;101367.50;;;7.21;99.96
77086;BME280;66014;53.134;18.006;2024-02-15T05:04:24;101369.36;;;7.22;99.96
77086;BME280;66014;53.134;18.006;2024-02-15T05:06:51;101371.09;;;7.22;99.97
77086;BME280;66014;53.134;18.006;2024-02-15T05:09:17;101370.81;;;7.23;99.93
77086;BME280;66014;53.134;18.006;2024-02-15T05:11:45;101369.56;;;7.24;99.77
77086;BME280;66014;53.134;18.006;2024-02-15T05:14:21;101367.67;;;7.25;99.81
77086;BME280;66014;53.134;18.006;2024-02-15T05:16:50;101363.35;;;7.26;99.77
77086;BME280;66014;53.134;18.006;2024-02-15T05:19:17;101360.79;;;7.27;99.84
77086;BME280;66014;53.134;18.006;2024-02-15T05:21:46;101356.88;;;7.27;99.71
77086;BME280;66014;53.134;18.006;2024-02-15T05:24:14;101354.04;;;7.27;99.64
77086;BME280;66014;53.134;18.006;2024-02-15T05:26:44;101362.01;;;7.29;99.53
77086;BME280;66014;53.134;18.006;2024-02-15T05:29:19;101359.34;;;7.29;99.59
77086;BME280;66014;53.134;18.006;2024-02-15T05:31:47;101361.02;;;7.30;99.56
77086;BME280;66014;53.134;18.006;2024-02-15T05:34:21;101366.23;;;7.31;99.44
77086;BME280;66014;53.134;18.006;2024-02-15T05:36:47;101370.73;;;7.32;99.49
77086;BME280;66014;53.134;18.006;2024-02-15T05:39:14;101368.70;;;7.33;99.38
77086;BME280;66014;53.134;18.006;2024-02-15T05:41:41;101370.05;;;7.34;99.40
77086;BME280;66014;53.134;18.006;2024-02-15T05:44:10;101366.52;;;7.33;99.30
77086;BME280;66014;53.134;18.006;2024-02-15T05:46:37;101366.96;;;7.34;99.31
77086;BME280;66014;53.134;18.006;2024-02-15T05:49:06;101365.73;;;7.35;99.26
77086;BME280;66014;53.134;18.006;2024-02-15T05:51:32;101362.02;;;7.34;99.21
77086;BME280;66014;53.134;18.006;2024-02-15T05:54:01;101364.90;;;7.34;99.29
77086;BME280;66014;53.134;18.006;2024-02-15T05:56:28;101364.77;;;7.33;99.35
77086;BME280;66014;53.134;18.006;2024-02-15T05:58:58;101368.70;;;7.33;99.28
77086;BME280;66014;53.134;18.006;2024-02-15T06:01:24;101369.70;;;7.33;99.25
77086;BME280;66014;53.134;18.006;2024-02-15T06:03:51;101370.77;;;7.34;99.33
77086;BME280;66014;53.134;18.006;2024-02-15T06:06:29;101378.29;;;7.34;99.28
77086;BME280;66014;53.134;18.006;2024-02-15T06:08:55;101378.77;;;7.35;99.31
77086;BME280;66014;53.134;18.006;2024-02-15T06:11:28;101380.19;;;7.35;99.26
77086;BME280;66014;53.134;18.006;2024-02-15T06:13:58;101379.63;;;7.35;99.23
77086;BME280;66014;53.134;18.006;2024-02-15T06:16:26;101381.98;;;7.36;99.20
77086;BME280;66014;53.134;18.006;2024-02-15T06:18:52;101380.38;;;7.36;99.20
77086;BME280;66014;53.134;18.006;2024-02-15T06:21:21;101384.09;;;7.37;99.29
77086;BME280;66014;53.134;18.006;2024-02-15T06:23:47;101386.38;;;7.36;99.28
77086;BME280;66014;53.134;18.006;2024-02-15T06:26:17;101389.50;;;7.37;99.31
77086;BME280;66014;53.134;18.006;2024-02-15T06:28:45;101393.67;;;7.38;99.34
77086;BME280;66014;53.134;18.006;2024-02-15T06:31:31;101395.27;;;7.40;99.28
77086;BME280;66014;53.134;18.006;2024-02-15T06:34:16;101394.91;;;7.42;99.31
77086;BME280;66014;53.134;18.006;2024-02-15T06:37:01;101393.15;;;7.43;99.21
77086;BME280;66014;53.134;18.006;2024-02-15T06:39:47;101390.91;;;7.45;99.18
77086;BME280;66014;53.134;18.006;2024-02-15T06:42:17;101395.94;;;7.48;99.07
77086;BME280;66014;53.134;18.006;2024-02-15T06:44:48;101400.18;;;7.50;99.09
77086;BME280;66014;53.134;18.006;2024-02-15T06:47:15;101401.94;;;7.51;99.10
77086;BME280;66014;53.134;18.006;2024-02-15T06:49:47;101402.69;;;7.53;99.05
77086;BME280;66014;53.134;18.006;2024-02-15T06:52:18;101408.39;;;7.54;99.07
77086;BME280;66014;53.134;18.006;2024-02-15T06:54:47;101410.98;;;7.55;99.12
77086;BME280;66014;53.134;18.006;2024-02-15T06:57:21;101407.27;;;7.55;99.11
77086;BME280;66014;53.134;18.006;2024-02-15T06:59:47;101415.41;;;7.57;99.01
77086;BME280;66014;53.134;18.006;2024-02-15T07:02:17;101420.07;;;7.56;99.13
77086;BME280;66014;53.134;18.006;2024-02-15T07:04:46;101425.01;;;7.56;99.25
77086;BME280;66014;53.134;18.006;2024-02-15T07:07:15;101423.39;;;7.56;99.15
77086;BME280;66014;53.134;18.006;2024-02-15T07:09:43;101422.77;;;7.57;99.18
77086;BME280;66014;53.134;18.006;2024-02-15T07:12:10;101428.13;;;7.59;99.26
77086;BME280;66014;53.134;18.006;2024-02-15T07:14:39;101425.14;;;7.60;99.12
77086;BME280;66014;53.134;18.006;2024-02-15T07:17:06;101425.55;;;7.61;99.07
77086;BME280;66014;53.134;18.006;2024-02-15T07:19:33;101426.14;;;7.63;98.98
77086;BME280;66014;53.134;18.006;2024-02-15T07:22:03;101429.05;;;7.64;98.94
77086;BME280;66014;53.134;18.006;2024-02-15T07:24:29;101432.42;;;7.66;99.11
77086;BME280;66014;53.134;18.006;2024-02-15T07:26:56;101430.16;;;7.65;99.11
77086;BME280;66014;53.134;18.006;2024-02-15T07:29:23;101424.16;;;7.65;99.04
77086;BME280;66014;53.134;18.006;2024-02-15T07:31:50;101425.95;;;7.67;99.18
77086;BME280;66014;53.134;18.006;2024-02-15T07:34:16;101425.00;;;7.67;99.18
77086;BME280;66014;53.134;18.006;2024-02-15T07:36:43;101425.13;;;7.68;99.40
77086;BME280;66014;53.134;18.006;2024-02-15T07:39:11;101425.25;;;7.69;99.46
77086;BME280;66014;53.134;18.006;2024-02-15T07:41:54;101421.49;;;7.69;99.74
77086;BME280;66014;53.134;18.006;2024-02-15T07:44:21;101423.73;;;7.70;99.68
77086;BME280;66014;53.134;18.006;2024-02-15T07:46:51;101421.33;;;7.71;99.76
77086;BME280;66014;53.134;18.006;2024-02-15T07:49:19;101423.88;;;7.72;99.77
77086;BME280;66014;53.134;18.006;2024-02-15T07:51:46;101423.20;;;7.72;99.77
77086;BME280;66014;53.134;18.006;2024-02-15T07:54:19;101429.16;;;7.74;99.88
77086;BME280;66014;53.134;18.006;2024-02-15T07:56:48;101427.99;;;7.75;99.95
77086;BME280;66014;53.134;18.006;2024-02-15T07:59:15;101428.23;;;7.78;99.97
77086;BME280;66014;53.134;18.006;2024-02-15T08:01:45;101428.31;;;7.81;99.97
77086;BME280;66014;53.134;18.006;2024-02-15T08:04:14;101428.77;;;7.84;99.89
77086;BME280;66014;53.134;18.006;2024-02-15T08:06:40;101430.66;;;7.88;99.87
77086;BME280;66014;53.134;18.006;2024-02-15T08:09:09;101429.73;;;7.92;99.88
77086;BME280;66014;53.134;18.006;2024-02-15T08:11:40;101431.79;;;7.95;99.89
77086;BME280;66014;53.134;18.006;2024-02-15T08:14:08;101428.59;;;7.97;99.85
77086;BME280;66014;53.134;18.006;2024-02-15T08:16:37;101427.60;;;8.00;99.80
77086;BME280;66014;53.134;18.006;2024-02-15T08:19:07;101431.36;;;8.05;99.82
77086;BME280;66014;53.134;18.006;2024-02-15T08:21:34;101437.05;;;8.09;99.77
77086;BME280;66014;53.134;18.006;2024-02-15T08:24:05;101437.98;;;8.10;99.75
77086;BME280;66014;53.134;18.006;2024-02-15T08:26:41;101438.89;;;8.08;99.66
77086;BME280;66014;53.134;18.006;2024-02-15T08:29:11;101439.28;;;8.05;99.73
77086;BME280;66014;53.134;18.006;2024-02-15T08:31:38;101440.45;;;8.06;99.90
77086;BME280;66014;53.134;18.006;2024-02-15T08:34:04;101444.79;;;8.07;99.88
77086;BME280;66014;53.134;18.006;2024-02-15T08:36:36;101442.38;;;8.08;99.96
77086;BME280;66014;53.134;18.006;2024-02-15T08:39:03;101443.19;;;8.09;99.96
77086;BME280;66014;53.134;18.006;2024-02-15T08:41:31;101444.02;;;8.10;99.93
77086;BME280;66014;53.134;18.006;2024-02-15T08:43:57;101446.20;;;8.13;99.97
77086;BME280;66014;53.134;18.006;2024-02-15T08:46:24;101445.64;;;8.15;99.94
77086;BME280;66014;53.134;18.006;2024-02-15T08:48:53;101440.27;;;8.17;99.91
77086;BME280;66014;53.134;18.006;2024-02-15T08:51:19;101445.94;;;8.19;99.96
77086;BME280;66014;53.134;18.006;2024-02-15T08:53:47;101445.39;;;8.19;99.92
77086;BME280;66014;53.134;18.006;2024-02-15T08:56:14;101447.39;;;8.21;99.98
77086;BME280;66014;53.134;18.006;2024-02-15T08:58:40;101447.77;;;8.21;99.97
77086;BME280;66014;53.134;18.006;2024-02-15T09:01:09;101448.96;;;8.21;99.97
77086;BME280;66014;53.134;18.006;2024-02-15T09:03:35;101450.04;;;8.21;99.92
77086;BME280;66014;53.134;18.006;2024-02-15T09:06:03;101450.33;;;8.22;99.99
77086;BME280;66014;53.134;18.006;2024-02-15T09:08:31;101445.32;;;8.24;99.95
77086;BME280;66014;53.134;18.006;2024-02-15T09:10:57;101443.61;;;8.27;99.94
77086;BME280;66014;53.134;18.006;2024-02-15T09:13:24;101440.52;;;8.32;99.96
77086;BME280;66014;53.134;18.006;2024-02-15T09:15:52;101444.91;;;8.38;99.99
77086;BME280;66014;53.134;18.006;2024-02-15T09:18:19;101446.73;;;8.48;99.93
77086;BME280;66014;53.134;18.006;2024-02-15T09:20:49;101452.04;;;8.63;99.79
77086;BME280;66014;53.134;18.006;2024-02-15T09:23:22;101453.30;;;8.70;99.40
77086;BME280;66014;53.134;18.006;2024-02-15T09:25:52;101451.08;;;8.73;99.40
77086;BME280;66014;53.134;18.006;2024-02-15T09:28:18;101448.98;;;8.73;99.29
77086;BME280;66014;53.134;18.006;2024-02-15T09:30:49;101452.28;;;8.71;99.32
77086;BME280;66014;53.134;18.006;2024-02-15T09:33:20;101446.90;;;8.72;99.36
77086;BME280;66014;53.134;18.006;2024-02-15T09:35:46;101447.73;;;8.73;99.56
77086;BME280;66014;53.134;18.006;2024-02-15T09:38:15;101447.02;;;8.75;99.40
77086;BME280;66014;53.134;18.006;2024-02-15T09:40:43;101440.62;;;8.82;99.52
77086;BME280;66014;53.134;18.006;2024-02-15T09:43:10;101441.61;;;8.92;99.45
77086;BME280;66014;53.134;18.006;2024-02-15T09:45:39;101440.49;;;9.01;99.12
77086;BME280;66014;53.134;18.006;2024-02-15T09:48:06;101438.44;;;9.10;98.77
77086;BME280;66014;53.134;18.006;2024-02-15T09:50:39;101439.41;;;9.16;98.90
77086;BME280;66014;53.134;18.006;2024-02-15T09:53:09;101437.60;;;9.23;98.66
77086;BME280;66014;53.134;18.006;2024-02-15T09:55:41;101440.02;;;9.31;98.57
77086;BME280;66014;53.134;18.006;2024-02-15T09:58:11;101442.36;;;9.38;98.42
77086;BME280;66014;53.134;18.006;2024-02-15T10:00:42;101446.17;;;9.42;98.30
77086;BME280;66014;53.134;18.006;2024-02-15T10:03:18;101445.98;;;9.44;98.20
77086;BME280;66014;53.134;18.006;2024-02-15T10:05:45;101447.88;;;9.46;98.16
77086;BME280;66014;53.134;18.006;2024-02-15T10:08:15;101453.04;;;9.48;97.83
77086;BME280;66014;53.134;18.006;2024-02-15T10:10:41;101452.55;;;9.51;97.92
77086;BME280;66014;53.134;18.006;2024-02-15T10:13:16;101454.23;;;9.56;97.93
77086;BME280;66014;53.134;18.006;2024-02-15T10:15:58;101455.14;;;9.62;97.80
77086;BME280;66014;53.134;18.006;2024-02-15T10:22:14;101455.29;;;9.56;97.67
77086;BME280;66014;53.134;18.006;2024-02-15T10:24:41;101447.54;;;9.52;97.91
77086;BME280;66014;53.134;18.006;2024-02-15T10:27:08;101446.79;;;9.50;97.98
77086;BME280;66014;53.134;18.006;2024-02-15T10:29:36;101449.06;;;9.49;97.98
77086;BME280;66014;53.134;18.006;2024-02-15T10:32:04;101447.48;;;9.47;98.03
77086;BME280;66014;53.134;18.006;2024-02-15T10:34:43;101440.88;;;9.47;98.16
77086;BME280;66014;53.134;18.006;2024-02-15T10:37:12;101438.15;;;9.50;98.16
77086;BME280;66014;53.134;18.006;2024-02-15T10:39:39;101436.97;;;9.55;98.18
77086;BME280;66014;53.134;18.006;2024-02-15T10:42:07;101436.20;;;9.59;97.96
77086;BME280;66014;53.134;18.006;2024-02-15T10:44:38;101432.87;;;9.67;97.80
77086;BME280;66014;53.134;18.006;2024-02-15T10:47:07;101436.36;;;9.78;97.48
77086;BME280;66014;53.134;18.006;2024-02-15T10:49:35;101430.52;;;9.88;97.45
77086;BME280;66014;53.134;18.006;2024-02-15T10:52:04;101430.02;;;10.00;97.40
77086;BME280;66014;53.134;18.006;2024-02-15T10:57:09;101426.41;;;10.23;96.45
77086;BME280;66014;53.134;18.006;2024-02-15T10:59:38;101424.50;;;10.26;96.27
77086;BME280;66014;53.134;18.006;2024-02-15T11:02:26;101423.75;;;10.28;96.17
77086;BME280;66014;53.134;18.006;2024-02-15T11:05:02;101427.12;;;10.25;95.98
77086;BME280;66014;53.134;18.006;2024-02-15T11:07:31;101427.39;;;10.23;95.99
77086;BME280;66014;53.134;18.006;2024-02-15T11:10:05;101424.01;;;10.19;96.00
77086;BME280;66014;53.134;18.006;2024-02-15T11:12:37;101420.67;;;10.17;96.09
77086;BME280;66014;53.134;18.006;2024-02-15T11:15:05;101419.69;;;10.16;96.28
77086;BME280;66014;53.134;18.006;2024-02-15T11:20:06;101416.53;;;10.09;95.86
77086;BME280;66014;53.134;18.006;2024-02-15T11:22:37;101415.00;;;10.10;96.25
77086;BME280;66014;53.134;18.006;2024-02-15T11:25:07;101414.64;;;10.10;96.25
77086;BME280;66014;53.134;18.006;2024-02-15T11:27:42;101414.82;;;10.12;96.32
77086;BME280;66014;53.134;18.006;2024-02-15T11:30:10;101413.63;;;10.13;96.26
77086;BME280;66014;53.134;18.006;2024-02-15T11:32:42;101410.88;;;10.16;96.28
77086;BME280;66014;53.134;18.006;2024-02-15T11:35:18;101410.45;;;10.20;96.21
77086;BME280;66014;53.134;18.006;2024-02-15T11:37:55;101405.07;;;10.26;95.94
77086;BME280;66014;53.134;18.006;2024-02-15T11:43:10;101404.59;;;10.39;95.37
77086;BME280;66014;53.134;18.006;2024-02-15T11:45:37;101403.30;;;10.42;95.18
77086;BME280;66014;53.134;18.006;2024-02-15T11:48:08;101403.62;;;10.45;94.78
77086;BME280;66014;53.134;18.006;2024-02-15T11:50:39;101399.07;;;10.47;94.86
77086;BME280;66014;53.134;18.006;2024-02-15T11:53:07;101398.41;;;10.52;94.79
77086;BME280;66014;53.134;18.006;2024-02-15T11:55:39;101398.35;;;10.54;94.36
77086;BME280;66014;53.134;18.006;2024-02-15T11:58:08;101398.86;;;10.58;94.55
77086;BME280;66014;53.134;18.006;2024-02-15T12:00:37;101401.89;;;10.58;94.27
77086;BME280;66014;53.134;18.006;2024-02-15T12:03:23;101403.75;;;10.55;94.57
77086;BME280;66014;53.134;18.006;2024-02-15T12:13:29;101409.74;;;10.40;94.89
77086;BME280;66014;53.134;18.006;2024-02-15T12:16:15;101406.11;;;10.38;94.73
77086;BME280;66014;53.134;18.006;2024-02-15T12:19:00;101408.88;;;10.33;94.70
77086;BME280;66014;53.134;18.006;2024-02-15T12:21:29;101409.19;;;10.30;94.91
77086;BME280;66014;53.134;18.006;2024-02-15T12:23:56;101409.15;;;10.29;95.03
77086;BME280;66014;53.134;18.006;2024-02-15T12:26:23;101405.55;;;10.28;94.94
77086;BME280;66014;53.134;18.006;2024-02-15T12:28:51;101404.56;;;10.29;95.02
77086;BME280;66014;53.134;18.006;2024-02-15T12:31:21;101399.85;;;10.33;95.06
77086;BME280;66014;53.134;18.006;2024-02-15T12:34:05;101397.62;;;10.37;94.97
77086;BME280;66014;53.134;18.006;2024-02-15T12:36:36;101395.81;;;10.39;94.88
77086;BME280;66014;53.134;18.006;2024-02-15T12:39:06;101397.90;;;10.40;94.87
77086;BME280;66014;53.134;18.006;2024-02-15T12:41:50;101401.89;;;10.39;94.64
77086;BME280;66014;53.134;18.006;2024-02-15T12:44:19;101398.88;;;10.37;94.69
77086;BME280;66014;53.134;18.006;2024-02-15T12:46:57;101394.49;;;10.37;94.87
77086;BME280;66014;53.134;18.006;2024-02-15T12:49:31;101395.42;;;10.37;94.72
77086;BME280;66014;53.134;18.006;2024-02-15T12:52:37;101395.13;;;10.38;94.81
77086;BME280;66014;53.134;18.006;2024-02-15T12:55:24;101397.00;;;10.38;94.69
77086;BME280;66014;53.134;18.006;2024-02-15T12:57:53;101394.41;;;10.39;94.77
77086;BME280;66014;53.134;18.006;2024-02-15T13:00:21;101393.05;;;10.40;94.67
77086;BME280;66014;53.134;18.006;2024-02-15T13:03:00;101391.55;;;10.41;94.65
77086;BME280;66014;53.134;18.006;2024-02-15T13:05:31;101393.82;;;10.41;94.53
77086;BME280;66014;53.134;18.006;2024-02-15T13:07:57;101396.63;;;10.40;94.53
77086;BME280;66014;53.134;18.006;2024-02-15T13:10:24;101392.66;;;10.39;94.72
77086;BME280;66014;53.134;18.006;2024-02-15T13:12:54;101393.23;;;10.39;94.62
77086;BME280;66014;53.134;18.006;2024-02-15T13:15:23;101397.09;;;10.39;94.74
77086;BME280;66014;53.134;18.006;2024-02-15T13:17:54;101395.04;;;10.40;94.77